Memphis, Missouri
Current Conditions -  °F | °C
As of 10:55 AM on Thursday 23 Oct 2014 (Local Time) from KIRK Reporting Station
Few Clouds Few Clouds  
Wind Chill: 58°   Ceiling: Unl
Heat Index: 58°   Visibility: 10mi
Dew Point: 51°   Wind: 9mph
Humidity: 78%   Direction: 200°SSW
Pressure: 30.13"   Gusts: NA
Location:  40.46°N, 92.17°W
Report Text: KIRK 231555Z AUTO 20008KT 10SM FEW024 14/11 A3013 RMK AO2 SLP206 T01440106
Loading
Personal Weather Stations






























Interactive Weather Map
Tropical Storm Tracking
New forecast layout! Learn more

10-Day Weather Forecast

Advertisements
Track Severe Weather on mobile